sensor_id;sensor_type;location;lat;lon;timestamp;pressure;altitude;pressure_sealevel;temperature;humidity
50684;BME280;36654;45.042;38.994;2023-09-18T00:02:19;101678.06;;;16.39;58.03
50684;BME280;36654;45.042;38.994;2023-09-18T00:04:45;101689.66;;;16.35;58.00
50684;BME280;36654;45.042;38.994;2023-09-18T00:07:10;101688.75;;;16.34;57.94
50684;BME280;36654;45.042;38.994;2023-09-18T00:09:36;101691.41;;;16.34;58.14
50684;BME280;36654;45.042;38.994;2023-09-18T00:12:02;101670.00;;;16.27;58.20
50684;BME280;36654;45.042;38.994;2023-09-18T00:14:28;101688.75;;;16.31;58.16
50684;BME280;36654;45.042;38.994;2023-09-18T00:16:53;101686.06;;;16.30;58.11
50684;BME280;36654;45.042;38.994;2023-09-18T00:19:19;101675.34;;;16.27;58.08
50684;BME280;36654;45.042;38.994;2023-09-18T00:21:44;101665.53;;;16.21;58.22
50684;BME280;36654;45.042;38.994;2023-09-18T00:24:12;101677.13;;;16.18;58.29
50684;BME280;36654;45.042;38.994;2023-09-18T00:26:38;101665.50;;;16.16;58.24
50684;BME280;36654;45.042;38.994;2023-09-18T00:29:04;101677.13;;;16.18;58.68
50684;BME280;36654;45.042;38.994;2023-09-18T00:31:30;101687.81;;;16.18;58.58
50684;BME280;36654;45.042;38.994;2023-09-18T00:33:56;101689.59;;;16.16;58.61
50684;BME280;36654;45.042;38.994;2023-09-18T00:36:21;101663.69;;;16.03;58.78
50684;BME280;36654;45.042;38.994;2023-09-18T00:38:47;101689.56;;;16.12;58.49
50684;BME280;36654;45.042;38.994;2023-09-18T00:41:12;101687.78;;;16.12;58.55
50684;BME280;36654;45.042;38.994;2023-09-18T00:43:38;101686.00;;;16.11;58.40
50684;BME280;36654;45.042;38.994;2023-09-18T00:46:04;101676.22;;;16.10;58.53
50684;BME280;36654;45.042;38.994;2023-09-18T00:48:30;101684.22;;;16.09;58.55
50684;BME280;36654;45.042;38.994;2023-09-18T00:50:56;101668.16;;;15.98;58.52
50684;BME280;36654;45.042;38.994;2023-09-18T00:53:23;101670.78;;;15.96;58.65
50684;BME280;36654;45.042;38.994;2023-09-18T00:55:54;101683.31;;;16.01;58.91
50684;BME280;36654;45.042;38.994;2023-09-18T00:58:21;101674.34;;;15.94;59.21
50684;BME280;36654;45.042;38.994;2023-09-18T01:00:47;101675.22;;;15.91;59.06
50684;BME280;36654;45.042;38.994;2023-09-18T01:03:16;101629.66;;;15.65;59.02
50684;BME280;36654;45.042;38.994;2023-09-18T01:05:44;101604.63;;;15.49;59.12
50684;BME280;36654;45.042;38.994;2023-09-18T01:08:10;101667.16;;;15.82;59.28
50684;BME280;36654;45.042;38.994;2023-09-18T01:10:56;101674.31;;;15.80;59.36
50684;BME280;36654;45.042;38.994;2023-09-18T01:13:54;101677.91;;;15.85;59.50
50684;BME280;36654;45.042;38.994;2023-09-18T01:19:16;101674.28;;;15.79;59.52
50684;BME280;36654;45.042;38.994;2023-09-18T01:21:45;101678.78;;;15.83;59.63
50684;BME280;36654;45.042;38.994;2023-09-18T01:24:11;101645.66;;;15.61;59.71
50684;BME280;36654;45.042;38.994;2023-09-18T01:26:36;101688.56;;;15.81;59.84
50684;BME280;36654;45.042;38.994;2023-09-18T01:29:02;101677.84;;;15.79;59.82
50684;BME280;36654;45.042;38.994;2023-09-18T01:31:28;101642.97;;;15.59;59.75
50684;BME280;36654;45.042;38.994;2023-09-18T01:33:53;101669.81;;;15.71;59.94
50684;BME280;36654;45.042;38.994;2023-09-18T01:36:20;101662.59;;;15.67;59.96
50684;BME280;36654;45.042;38.994;2023-09-18T01:38:46;101678.72;;;15.72;59.90
50684;BME280;36654;45.042;38.994;2023-09-18T01:41:12;101683.16;;;15.71;60.27
50684;BME280;36654;45.042;38.994;2023-09-18T01:43:38;101672.47;;;15.71;59.96
50684;BME280;36654;45.042;38.994;2023-09-18T01:46:04;101665.28;;;15.66;59.92
50684;BME280;36654;45.042;38.994;2023-09-18T01:48:30;101672.44;;;15.70;60.29
50684;BME280;36654;45.042;38.994;2023-09-18T01:50:56;101677.75;;;15.64;60.23
50684;BME280;36654;45.042;38.994;2023-09-18T01:53:21;101652.78;;;15.56;60.46
50684;BME280;36654;45.042;38.994;2023-09-18T01:55:47;101667.06;;;15.65;60.31
50684;BME280;36654;45.042;38.994;2023-09-18T01:58:13;101678.63;;;15.67;60.38
50684;BME280;36654;45.042;38.994;2023-09-18T02:00:39;101683.09;;;15.67;60.70
50684;BME280;36654;45.042;38.994;2023-09-18T02:03:05;101685.78;;;15.65;60.63
50684;BME280;36654;45.042;38.994;2023-09-18T02:05:31;101676.81;;;15.57;60.75
50684;BME280;36654;45.042;38.994;2023-09-18T02:07:57;101685.75;;;15.62;61.06
50684;BME280;36654;45.042;38.994;2023-09-18T02:10:23;101688.41;;;15.59;60.96
50684;BME280;36654;45.042;38.994;2023-09-18T02:12:49;101686.63;;;15.58;61.23
50684;BME280;36654;45.042;38.994;2023-09-18T02:15:14;101640.16;;;15.28;60.99
50684;BME280;36654;45.042;38.994;2023-09-18T02:17:42;101693.72;;;15.51;61.17
50684;BME280;36654;45.042;38.994;2023-09-18T02:20:08;101680.31;;;15.44;61.24
50684;BME280;36654;45.042;38.994;2023-09-18T02:22:40;101682.97;;;15.38;61.44
50684;BME280;36654;45.042;38.994;2023-09-18T02:25:06;101683.84;;;15.40;61.42
50684;BME280;36654;45.042;38.994;2023-09-18T02:27:32;101642.72;;;15.13;61.74
50684;BME280;36654;45.042;38.994;2023-09-18T02:29:58;101682.91;;;15.35;61.70
50684;BME280;36654;45.042;38.994;2023-09-18T02:32:23;101681.09;;;15.26;61.71
50684;BME280;36654;45.042;38.994;2023-09-18T02:34:49;101689.16;;;15.34;61.84
50684;BME280;36654;45.042;38.994;2023-09-18T02:37:15;101694.47;;;15.30;62.09
50684;BME280;36654;45.042;38.994;2023-09-18T02:39:40;101655.16;;;15.11;62.21
50684;BME280;36654;45.042;38.994;2023-09-18T02:42:06;101640.81;;;14.97;62.13
50684;BME280;36654;45.042;38.994;2023-09-18T02:44:31;101701.56;;;15.27;61.96
50684;BME280;36654;45.042;38.994;2023-09-18T02:46:57;101705.09;;;15.21;61.97
50684;BME280;36654;45.042;38.994;2023-09-18T02:49:23;101698.00;;;15.23;61.93
50684;BME280;36654;45.042;38.994;2023-09-18T02:51:49;101697.09;;;15.24;61.93
50684;BME280;36654;45.042;38.994;2023-09-18T02:54:15;101700.63;;;15.22;62.00
50684;BME280;36654;45.042;38.994;2023-09-18T02:56:40;101689.06;;;15.21;62.08
50684;BME280;36654;45.042;38.994;2023-09-18T02:59:06;101690.81;;;15.16;62.10
50684;BME280;36654;45.042;38.994;2023-09-18T03:01:32;101696.19;;;15.22;62.14
50684;BME280;36654;45.042;38.994;2023-09-18T03:03:57;101702.44;;;15.24;61.99
50684;BME280;36654;45.042;38.994;2023-09-18T03:06:23;101696.22;;;15.25;62.08
50684;BME280;36654;45.042;38.994;2023-09-18T03:08:48;101708.72;;;15.28;61.78
50684;BME280;36654;45.042;38.994;2023-09-18T03:11:14;101711.34;;;15.26;61.74
50684;BME280;36654;45.042;38.994;2023-09-18T03:13:45;101699.81;;;15.30;61.68
50684;BME280;36654;45.042;38.994;2023-09-18T03:16:12;101710.59;;;15.47;61.43
50684;BME280;36654;45.042;38.994;2023-09-18T03:18:37;101658.03;;;15.43;60.78
50684;BME280;36654;45.042;38.994;2023-09-18T03:21:03;101705.53;;;15.92;59.96
50684;BME280;36654;45.042;38.994;2023-09-18T03:23:29;101662.78;;;15.96;59.04
50684;BME280;36654;45.042;38.994;2023-09-18T03:25:55;101698.59;;;16.40;58.38
50684;BME280;36654;45.042;38.994;2023-09-18T03:28:20;101704.88;;;16.71;57.39
50684;BME280;36654;45.042;38.994;2023-09-18T03:30:46;101720.13;;;16.95;56.39
50684;BME280;36654;45.042;38.994;2023-09-18T03:33:12;101673.69;;;16.96;55.78
50684;BME280;36654;45.042;38.994;2023-09-18T03:35:51;101715.63;;;17.45;54.92
50684;BME280;36654;45.042;38.994;2023-09-18T03:38:19;101716.44;;;17.73;54.08
50684;BME280;36654;45.042;38.994;2023-09-18T03:40:46;101701.22;;;17.89;53.09
50684;BME280;36654;45.042;38.994;2023-09-18T03:43:12;101677.06;;;17.94;52.39
50684;BME280;36654;45.042;38.994;2023-09-18T03:45:38;101712.72;;;18.23;51.98
50684;BME280;36654;45.042;38.994;2023-09-18T03:48:06;101694.69;;;18.44;51.16
50684;BME280;36654;45.042;38.994;2023-09-18T03:50:31;101708.81;;;18.77;50.64
50684;BME280;36654;45.042;38.994;2023-09-18T03:52:57;101706.88;;;19.00;50.07
50684;BME280;36654;45.042;38.994;2023-09-18T03:55:23;101703.97;;;19.22;49.03
50684;BME280;36654;45.042;38.994;2023-09-18T03:57:49;101674.47;;;19.15;48.55
50684;BME280;36654;45.042;38.994;2023-09-18T04:00:15;101715.28;;;19.57;48.30
50684;BME280;36654;45.042;38.994;2023-09-18T04:02:41;101702.72;;;19.59;47.70
50684;BME280;36654;45.042;38.994;2023-09-18T04:05:07;101715.91;;;19.84;47.44
50684;BME280;36654;45.042;38.994;2023-09-18T04:07:33;101722.13;;;19.89;47.10
50684;BME280;36654;45.042;38.994;2023-09-18T04:09:59;101714.00;;;19.95;46.73
50684;BME280;36654;45.042;38.994;2023-09-18T04:12:25;101719.19;;;20.11;46.54
50684;BME280;36654;45.042;38.994;2023-09-18T04:14:50;101709.19;;;20.22;46.39
50684;BME280;36654;45.042;38.994;2023-09-18T04:17:16;101718.16;;;20.21;46.22
50684;BME280;36654;45.042;38.994;2023-09-18T04:19:42;101711.66;;;20.37;46.07
50684;BME280;36654;45.042;38.994;2023-09-18T04:22:09;101712.22;;;20.61;45.55
50684;BME280;36654;45.042;38.994;2023-09-18T04:24:34;101684.34;;;20.63;45.38
50684;BME280;36654;45.042;38.994;2023-09-18T04:27:00;101709.91;;;20.94;44.86
50684;BME280;36654;45.042;38.994;2023-09-18T04:29:26;101726.84;;;21.03;44.42
50684;BME280;36654;45.042;38.994;2023-09-18T04:31:51;101722.09;;;21.18;44.19
50684;BME280;36654;45.042;38.994;2023-09-18T04:34:19;101713.00;;;21.23;44.07
50684;BME280;36654;45.042;38.994;2023-09-18T04:36:48;101706.81;;;21.18;43.93
50684;BME280;36654;45.042;38.994;2023-09-18T04:39:13;101702.56;;;21.05;43.82
50684;BME280;36654;45.042;38.994;2023-09-18T04:41:39;101702.75;;;20.93;44.22
50684;BME280;36654;45.042;38.994;2023-09-18T04:44:05;101716.03;;;21.05;43.85
50684;BME280;36654;45.042;38.994;2023-09-18T04:46:31;101720.41;;;21.12;44.20
50684;BME280;36654;45.042;38.994;2023-09-18T04:48:56;101718.94;;;20.93;44.22
50684;BME280;36654;45.042;38.994;2023-09-18T04:51:24;101681.28;;;20.28;45.29
50684;BME280;36654;45.042;38.994;2023-09-18T04:54:07;101736.72;;;19.70;47.20
50684;BME280;36654;45.042;38.994;2023-09-18T04:56:33;101720.97;;;19.24;48.30
50684;BME280;36654;45.042;38.994;2023-09-18T04:58:59;101728.44;;;18.89;49.47
50684;BME280;36654;45.042;38.994;2023-09-18T05:01:24;101669.69;;;18.36;49.88
50684;BME280;36654;45.042;38.994;2023-09-18T05:03:50;101717.91;;;18.51;50.78
50684;BME280;36654;45.042;38.994;2023-09-18T05:06:16;101725.13;;;18.43;51.52
50684;BME280;36654;45.042;38.994;2023-09-18T05:08:43;101676.09;;;18.07;51.46
50684;BME280;36654;45.042;38.994;2023-09-18T05:11:09;101708.25;;;18.22;52.04
50684;BME280;36654;45.042;38.994;2023-09-18T05:13:34;101689.56;;;18.02;52.73
50684;BME280;36654;45.042;38.994;2023-09-18T05:16:00;101717.25;;;18.10;52.92
50684;BME280;36654;45.042;38.994;2023-09-18T05:18:26;101677.09;;;17.78;53.39
50684;BME280;36654;45.042;38.994;2023-09-18T05:20:52;101716.38;;;18.01;53.32
50684;BME280;36654;45.042;38.994;2023-09-18T05:23:17;101711.03;;;17.96;53.54
50684;BME280;36654;45.042;38.994;2023-09-18T05:25:43;101696.75;;;17.93;54.12
50684;BME280;36654;45.042;38.994;2023-09-18T05:28:09;101716.44;;;17.95;54.13
50684;BME280;36654;45.042;38.994;2023-09-18T05:30:35;101694.06;;;17.89;54.49
50684;BME280;36654;45.042;38.994;2023-09-18T05:33:04;101716.41;;;17.98;54.26
50684;BME280;36654;45.042;38.994;2023-09-18T05:35:34;101682.47;;;17.81;54.55
50684;BME280;36654;45.042;38.994;2023-09-18T05:38:02;101705.69;;;17.98;54.57
50684;BME280;36654;45.042;38.994;2023-09-18T05:40:28;101713.69;;;18.01;54.42
50684;BME280;36654;45.042;38.994;2023-09-18T05:42:55;101705.59;;;18.11;54.83
50684;BME280;36654;45.042;38.994;2023-09-18T05:45:21;101701.13;;;18.15;54.52
50684;BME280;36654;45.042;38.994;2023-09-18T05:47:48;101702.88;;;18.19;54.60
50684;BME280;36654;45.042;38.994;2023-09-18T05:50:14;101693.91;;;18.23;54.62
50684;BME280;36654;45.042;38.994;2023-09-18T05:52:44;101712.66;;;18.36;54.75
50684;BME280;36654;45.042;38.994;2023-09-18T05:55:10;101697.44;;;18.38;54.48
50684;BME280;36654;45.042;38.994;2023-09-18T05:57:36;101687.59;;;18.40;54.77
50684;BME280;36654;45.042;38.994;2023-09-18T06:00:02;101689.25;;;18.56;54.09
50684;BME280;36654;45.042;38.994;2023-09-18T06:02:28;101710.69;;;18.59;54.39
50684;BME280;36654;45.042;38.994;2023-09-18T06:05:00;101670.47;;;18.51;54.12
50684;BME280;36654;45.042;38.994;2023-09-18T06:07:29;101698.13;;;18.64;53.88
50684;BME280;36654;45.042;38.994;2023-09-18T06:09:56;101661.50;;;18.54;53.96
50684;BME280;36654;45.042;38.994;2023-09-18T06:12:22;101653.44;;;18.60;53.94
50684;BME280;36654;45.042;38.994;2023-09-18T06:14:49;101714.06;;;18.92;53.31
50684;BME280;36654;45.042;38.994;2023-09-18T06:17:15;101687.22;;;18.92;53.45
50684;BME280;36654;45.042;38.994;2023-09-18T06:19:41;101663.13;;;18.83;53.12
50684;BME280;36654;45.042;38.994;2023-09-18T06:22:07;101582.09;;;18.25;52.88
50684;BME280;36654;45.042;38.994;2023-09-18T06:24:34;101696.13;;;19.00;52.44
50684;BME280;36654;45.042;38.994;2023-09-18T06:26:59;101697.84;;;19.07;52.74
50684;BME280;36654;45.042;38.994;2023-09-18T06:29:25;101698.66;;;19.17;52.70
50684;BME280;36654;45.042;38.994;2023-09-18T06:31:51;101695.97;;;19.17;52.14
50684;BME280;36654;45.042;38.994;2023-09-18T06:34:17;101687.97;;;19.09;51.73
50684;BME280;36654;45.042;38.994;2023-09-18T06:36:42;101722.69;;;19.34;51.42
50684;BME280;36654;45.042;38.994;2023-09-18T06:39:08;101716.41;;;19.33;51.48
50684;BME280;36654;45.042;38.994;2023-09-18T06:41:34;101724.44;;;19.38;51.46
50684;BME280;36654;45.042;38.994;2023-09-18T06:44:00;101707.50;;;19.30;50.93
50684;BME280;36654;45.042;38.994;2023-09-18T06:46:29;101717.25;;;19.40;50.74
50684;BME280;36654;45.042;38.994;2023-09-18T06:48:55;101744.13;;;19.42;50.41
50684;BME280;36654;45.042;38.994;2023-09-18T06:51:22;101719.09;;;19.32;50.47
50684;BME280;36654;45.042;38.994;2023-09-18T06:53:48;101680.69;;;19.21;50.77
50684;BME280;36654;45.042;38.994;2023-09-18T06:56:14;101719.84;;;19.49;50.87
50684;BME280;36654;45.042;38.994;2023-09-18T06:58:39;101707.25;;;19.53;50.96
50684;BME280;36654;45.042;38.994;2023-09-18T07:01:05;101713.44;;;19.63;50.63
50684;BME280;36654;45.042;38.994;2023-09-18T07:03:35;101720.50;;;19.76;50.05
50684;BME280;36654;45.042;38.994;2023-09-18T07:06:02;101716.81;;;19.83;49.74
50684;BME280;36654;45.042;38.994;2023-09-18T07:08:29;101727.63;;;19.78;49.73
50684;BME280;36654;45.042;38.994;2023-09-18T07:10:55;101721.38;;;19.79;50.15
50684;BME280;36654;45.042;38.994;2023-09-18T07:13:21;101719.44;;;19.89;49.40
50684;BME280;36654;45.042;38.994;2023-09-18T07:15:46;101732.91;;;19.88;49.44
50684;BME280;36654;45.042;38.994;2023-09-18T07:18:13;101716.75;;;19.89;49.57
50684;BME280;36654;45.042;38.994;2023-09-18T07:20:45;101713.16;;;19.90;49.45
50684;BME280;36654;45.042;38.994;2023-09-18T07:23:11;101676.66;;;19.68;49.56
50684;BME280;36654;45.042;38.994;2023-09-18T07:25:36;101728.34;;;19.94;49.36
50684;BME280;36654;45.042;38.994;2023-09-18T07:28:06;101714.72;;;20.07;48.98
50684;BME280;36654;45.042;38.994;2023-09-18T07:30:33;101714.56;;;20.19;48.56
50684;BME280;36654;45.042;38.994;2023-09-18T07:33:02;101680.66;;;20.06;48.47
50684;BME280;36654;45.042;38.994;2023-09-18T07:35:30;101713.34;;;20.44;48.18
50684;BME280;36654;45.042;38.994;2023-09-18T07:37:56;101699.69;;;20.60;47.52
50684;BME280;36654;45.042;38.994;2023-09-18T07:40:22;101706.72;;;20.70;47.11
50684;BME280;36654;45.042;38.994;2023-09-18T07:42:48;101710.13;;;20.81;46.34
50684;BME280;36654;45.042;38.994;2023-09-18T07:45:14;101702.84;;;20.86;46.39
50684;BME280;36654;45.042;38.994;2023-09-18T07:47:43;101691.09;;;20.92;46.44
50684;BME280;36654;45.042;38.994;2023-09-18T07:50:09;101720.63;;;21.00;46.18
50684;BME280;36654;45.042;38.994;2023-09-18T07:52:35;101717.88;;;21.01;46.06
50684;BME280;36654;45.042;38.994;2023-09-18T07:55:01;101684.97;;;20.82;45.65
50684;BME280;36654;45.042;38.994;2023-09-18T07:57:27;101651.69;;;20.85;45.58
50684;BME280;36654;45.042;38.994;2023-09-18T07:59:58;101689.81;;;21.13;45.28
50684;BME280;36654;45.042;38.994;2023-09-18T08:02:24;101703.22;;;21.19;45.15
50684;BME280;36654;45.042;38.994;2023-09-18T08:04:55;101687.94;;;21.18;45.15
50684;BME280;36654;45.042;38.994;2023-09-18T08:07:20;101693.13;;;21.29;45.18
50684;BME280;36654;45.042;38.994;2023-09-18T08:09:46;101684.09;;;21.31;45.07
50684;BME280;36654;45.042;38.994;2023-09-18T08:12:12;101709.09;;;21.43;44.61
50684;BME280;36654;45.042;38.994;2023-09-18T08:14:38;101653.84;;;21.14;44.71
50684;BME280;36654;45.042;38.994;2023-09-18T08:17:04;101653.75;;;21.20;44.08
50684;BME280;36654;45.042;38.994;2023-09-18T08:19:30;101660.88;;;21.24;43.73
50684;BME280;36654;45.042;38.994;2023-09-18T08:21:58;101683.06;;;21.42;44.12
50684;BME280;36654;45.042;38.994;2023-09-18T08:24:25;101698.03;;;21.58;43.93
50684;BME280;36654;45.042;38.994;2023-09-18T08:26:51;101673.66;;;21.61;43.12
50684;BME280;36654;45.042;38.994;2023-09-18T08:29:17;101678.91;;;21.70;43.40
50684;BME280;36654;45.042;38.994;2023-09-18T08:31:44;101690.50;;;21.75;42.73
50684;BME280;36654;45.042;38.994;2023-09-18T08:34:09;101688.66;;;21.78;42.05
50684;BME280;36654;45.042;38.994;2023-09-18T08:36:35;101701.03;;;21.88;41.86
50684;BME280;36654;45.042;38.994;2023-09-18T08:39:01;101701.28;;;21.75;41.82
50684;BME280;36654;45.042;38.994;2023-09-18T08:41:31;101669.53;;;21.88;41.82
50684;BME280;36654;45.042;38.994;2023-09-18T08:44:02;101683.88;;;21.92;40.95
50684;BME280;36654;45.042;38.994;2023-09-18T08:46:29;101677.53;;;21.93;40.79
50684;BME280;36654;45.042;38.994;2023-09-18T08:48:57;101666.63;;;21.97;41.43
50684;BME280;36654;45.042;38.994;2023-09-18T08:51:23;101691.63;;;22.07;40.11
50684;BME280;36654;45.042;38.994;2023-09-18T08:53:48;101690.09;;;21.94;40.19
50684;BME280;36654;45.042;38.994;2023-09-18T08:56:15;101661.22;;;21.99;40.18
50684;BME280;36654;45.042;38.994;2023-09-18T08:58:43;101678.03;;;22.12;40.46
50684;BME280;36654;45.042;38.994;2023-09-18T09:01:09;101675.34;;;22.10;40.62
50684;BME280;36654;45.042;38.994;2023-09-18T09:03:42;101648.19;;;22.18;40.62
50684;BME280;36654;45.042;38.994;2023-09-18T09:06:11;101617.81;;;22.08;40.65
50684;BME280;36654;45.042;38.994;2023-09-18T09:08:37;101650.38;;;22.41;39.92
50684;BME280;36654;45.042;38.994;2023-09-18T09:11:04;101674.78;;;22.38;39.43
50684;BME280;36654;45.042;38.994;2023-09-18T09:13:30;101627.47;;;22.18;38.86
50684;BME280;36654;45.042;38.994;2023-09-18T09:15:58;101654.63;;;22.51;39.07
50684;BME280;36654;45.042;38.994;2023-09-18T09:18:25;101667.31;;;22.49;39.18
50684;BME280;36654;45.042;38.994;2023-09-18T09:21:01;101637.47;;;22.54;38.93
50684;BME280;36654;45.042;38.994;2023-09-18T09:23:44;101657.22;;;22.57;39.25
50684;BME280;36654;45.042;38.994;2023-09-18T09:26:17;101620.53;;;22.47;38.71
50684;BME280;36654;45.042;38.994;2023-09-18T09:28:44;101635.22;;;22.71;38.25
50684;BME280;36654;45.042;38.994;2023-09-18T09:31:10;101612.47;;;22.46;39.50
50684;BME280;36654;45.042;38.994;2023-09-18T09:33:37;101598.28;;;22.36;38.11
50684;BME280;36654;45.042;38.994;2023-09-18T09:36:06;101650.66;;;22.68;38.65
50684;BME280;36654;45.042;38.994;2023-09-18T09:38:34;101696.44;;;22.74;37.55
50684;BME280;36654;45.042;38.994;2023-09-18T09:41:04;101636.38;;;22.63;38.04
50684;BME280;36654;45.042;38.994;2023-09-18T09:43:32;101637.16;;;22.66;38.16
50684;BME280;36654;45.042;38.994;2023-09-18T09:46:02;101641.13;;;22.51;37.52
50684;BME280;36654;45.042;38.994;2023-09-18T09:48:29;101643.41;;;22.70;37.50
50684;BME280;36654;45.042;38.994;2023-09-18T09:51:00;101606.09;;;22.48;37.84
50684;BME280;36654;45.042;38.994;2023-09-18T09:53:45;101626.03;;;22.78;37.76
50684;BME280;36654;45.042;38.994;2023-09-18T09:56:14;101650.34;;;22.80;37.72
50684;BME280;36654;45.042;38.994;2023-09-18T09:58:40;101639.69;;;22.74;37.32
50684;BME280;36654;45.042;38.994;2023-09-18T10:01:12;101607.19;;;22.77;37.24
50684;BME280;36654;45.042;38.994;2023-09-18T10:03:44;101684.50;;;22.84;36.97
50684;BME280;36654;45.042;38.994;2023-09-18T10:06:10;101644.84;;;22.83;37.57
50684;BME280;36654;45.042;38.994;2023-09-18T10:08:39;101639.53;;;22.80;37.75
50684;BME280;36654;45.042;38.994;2023-09-18T10:11:07;101631.03;;;22.95;37.22
50684;BME280;36654;45.042;38.994;2023-09-18T10:13:47;101648.78;;;23.07;36.87
50684;BME280;36654;45.042;38.994;2023-09-18T10:16:17;101660.31;;;23.14;36.55
50684;BME280;36654;45.042;38.994;2023-09-18T10:24:26;101628.22;;;23.01;36.87
50684;BME280;36654;45.042;38.994;2023-09-18T10:27:00;101608.03;;;22.79;37.16
50684;BME280;36654;45.042;38.994;2023-09-18T10:29:31;101671.66;;;22.92;37.61
50684;BME280;36654;45.042;38.994;2023-09-18T10:31:58;101615.59;;;23.00;36.89
50684;BME280;36654;45.042;38.994;2023-09-18T10:34:24;101649.00;;;22.99;37.42
50684;BME280;36654;45.042;38.994;2023-09-18T10:36:51;101613.75;;;23.02;37.23
50684;BME280;36654;45.042;38.994;2023-09-18T10:39:17;101623.59;;;23.05;36.96
50684;BME280;36654;45.042;38.994;2023-09-18T10:41:53;101619.81;;;23.12;36.56
50684;BME280;36654;45.042;38.994;2023-09-18T10:44:19;101647.91;;;23.07;36.86
50684;BME280;36654;45.042;38.994;2023-09-18T10:46:51;101625.34;;;23.06;37.01
50684;BME280;36654;45.042;38.994;2023-09-18T10:49:21;101612.78;;;23.05;36.96
50684;BME280;36654;45.042;38.994;2023-09-18T10:51:47;101604.47;;;23.13;37.37
50684;BME280;36654;45.042;38.994;2023-09-18T10:54:20;101620.66;;;23.14;37.21
50684;BME280;36654;45.042;38.994;2023-09-18T10:56:46;101597.09;;;23.18;37.01
50684;BME280;36654;45.042;38.994;2023-09-18T10:59:14;101571.25;;;23.08;36.09
50684;BME280;36654;45.042;38.994;2023-09-18T11:01:39;101604.09;;;23.27;35.58
50684;BME280;36654;45.042;38.994;2023-09-18T11:04:07;101607.69;;;23.27;36.01
50684;BME280;36654;45.042;38.994;2023-09-18T11:09:29;101612.22;;;23.27;35.92
50684;BME280;36654;45.042;38.994;2023-09-18T11:14:47;101593.22;;;23.28;35.14
50684;BME280;36654;45.042;38.994;2023-09-18T11:17:43;101555.78;;;23.13;35.10
50684;BME280;36654;45.042;38.994;2023-09-18T11:22:48;101594.38;;;23.51;35.53
50684;BME280;36654;45.042;38.994;2023-09-18T11:25:36;101602.44;;;23.52;36.05
50684;BME280;36654;45.042;38.994;2023-09-18T11:28:03;101625.31;;;23.40;35.94
50684;BME280;36654;45.042;38.994;2023-09-18T11:30:36;101560.81;;;23.27;36.21
50684;BME280;36654;45.042;38.994;2023-09-18T11:33:04;101570.50;;;23.34;36.17
50684;BME280;36654;45.042;38.994;2023-09-18T11:35:31;101548.41;;;23.18;35.85
50684;BME280;36654;45.042;38.994;2023-09-18T11:38:09;101561.81;;;23.22;36.20
50684;BME280;36654;45.042;38.994;2023-09-18T11:40:37;101540.94;;;23.28;35.74
50684;BME280;36654;45.042;38.994;2023-09-18T11:43:26;101565.44;;;23.53;35.83
50684;BME280;36654;45.042;38.994;2023-09-18T11:45:56;101572.63;;;23.54;35.93
50684;BME280;36654;45.042;38.994;2023-09-18T11:48:23;101596.81;;;23.60;35.76
50684;BME280;36654;45.042;38.994;2023-09-18T11:50:53;101556.34;;;23.55;36.00
50684;BME280;36654;45.042;38.994;2023-09-18T11:53:20;101579.56;;;23.64;35.54
50684;BME280;36654;45.042;38.994;2023-09-18T11:55:47;101585.25;;;23.55;34.61
50684;BME280;36654;45.042;38.994;2023-09-18T11:58:13;101601.38;;;23.58;34.67
50684;BME280;36654;45.042;38.994;2023-09-18T12:00:39;101563.63;;;23.53;35.10
50684;BME280;36654;45.042;38.994;2023-09-18T12:03:22;101516.59;;;23.28;35.00
50684;BME280;36654;45.042;38.994;2023-09-18T12:06:02;101564.50;;;23.54;34.73
50684;BME280;36654;45.042;38.994;2023-09-18T12:08:31;101570.59;;;23.62;35.11
50684;BME280;36654;45.042;38.994;2023-09-18T12:10:58;101592.41;;;23.56;35.07
50684;BME280;36654;45.042;38.994;2023-09-18T12:13:29;101550.22;;;23.48;34.04
50684;BME280;36654;45.042;38.994;2023-09-18T12:15:56;101572.56;;;23.57;34.51
50684;BME280;36654;45.042;38.994;2023-09-18T12:18:24;101568.75;;;23.64;34.96
50684;BME280;36654;45.042;38.994;2023-09-18T12:20:50;101563.59;;;23.55;35.04
50684;BME280;36654;45.042;38.994;2023-09-18T12:23:17;101551.44;;;23.68;34.84
50684;BME280;36654;45.042;38.994;2023-09-18T12:25:50;101569.56;;;23.66;35.40
50684;BME280;36654;45.042;38.994;2023-09-18T12:28:22;101557.81;;;23.67;35.09
50684;BME280;36654;45.042;38.994;2023-09-18T12:30:48;101565.09;;;23.65;34.66
50684;BME280;36654;45.042;38.994;2023-09-18T12:33:16;101565.88;;;23.68;34.70
50684;BME280;36654;45.042;38.994;2023-09-18T12:35:42;101543.63;;;23.59;34.59
50684;BME280;36654;45.042;38.994;2023-09-18T12:38:16;101565.97;;;23.65;34.60
50684;BME280;36654;45.042;38.994;2023-09-18T12:40:42;101518.91;;;23.41;35.04
50684;BME280;36654;45.042;38.994;2023-09-18T12:43:10;101567.66;;;23.69;34.90
50684;BME280;36654;45.042;38.994;2023-09-18T12:45:36;101525.72;;;23.55;34.67
50684;BME280;36654;45.042;38.994;2023-09-18T12:48:02;101566.59;;;23.75;34.92
50684;BME280;36654;45.042;38.994;2023-09-18T12:50:29;101511.44;;;23.50;35.32
50684;BME280;36654;45.042;38.994;2023-09-18T12:53:09;101539.66;;;23.71;35.31
50684;BME280;36654;45.042;38.994;2023-09-18T12:55:35;101542.16;;;23.78;35.33
50684;BME280;36654;45.042;38.994;2023-09-18T12:58:01;101488.59;;;23.58;35.39
50684;BME280;36654;45.042;38.994;2023-09-18T13:00:31;101555.03;;;24.00;34.84